Buoy 46928

sailwx.info

Track history (hours):
 
Tides and Currents Weather Stations Pressure Air Temp Water Temp Dewpoint Dewpoint Depression Visibility Wind Speed Wind Dir Waves Ship Positions

Drifting buoy 46928

Last reported at 2015-Sep-29 18:40 UTC. Time now 2016-Jul-29 07:48 UTC.
Position N 54°45' W 132°22'.
Warning: this ship's position is months out of date.

Barometer 1014.2 mb
Water temperature 11.4 ° C

Date/timePositionNaut miles runAvg speedWind from/ knotsBaromVisibWave heightAir tempDewpointWater temp
2015-Sep-29 18:40N 54°45' W 132°22'0 0.1 1014.2 11.4
2015-Sep-29 17:40N 54°46' W 132°22'0 0.0 1014.4 11.4
2015-Sep-29 11:40N 54°46' W 132°22'0 0.0 1013.6 11.4
2015-Sep-29 04:40N 54°45' W 132°22'0 0.1 1014.9 11.3
2015-Sep-29 00:40N 54°45' W 132°22'0 0.1 1015.2 11.3
2015-Sep-28 19:40N 54°46' W 132°22'0 0.1 1017.7 11.6
2015-Sep-28 17:40N 54°45' W 132°22'0 0.0 1018.8 11.2
2015-Sep-28 16:40N 54°45' W 132°22'0 0.2 1019.2 11.2
2015-Sep-28 15:40N 54°46' W 132°22'0 0.1 1019.7 11.2
2015-Sep-28 14:40N 54°46' W 132°22'0 0.0 1020.2 11.2
2015-Sep-28 12:40N 54°46' W 132°22'0 0.1 1020.5 11.5
2015-Sep-28 11:40N 54°45' W 132°22'0 0.0 1020.6 11.6
2015-Sep-28 06:40N 54°45' W 132°22'0 0.1 1021.6 11.6
2015-Sep-28 05:40N 54°46' W 132°22'0 0.0 1021.7 11.6
2015-Sep-28 02:40N 54°46' W 132°22'0 0.2 1022.1 11.5
2015-Sep-28 01:40N 54°45' W 132°22'0 0.0 1022.0 11.6
2015-Sep-27 03:40N 54°46' W 132°22'0 0.1 1018.4 11.6
2015-Sep-27 02:40N 54°45' W 132°22'0 0.0 1018.2 11.6
2015-Sep-27 00:40N 54°45' W 132°22'0 0.2 1018.0 11.6
2015-Sep-26 23:40N 54°46' W 132°22'0 0.1 1017.6 11.6
2015-Sep-26 20:40N 54°45' W 132°22'0 0.1 1018.7 11.6
2015-Sep-26 18:40N 54°45' W 132°22'0 0.1 1019.5 11.6
2015-Sep-26 17:40N 54°45' W 132°22'0 0.0 1019.7 11.6
2015-Sep-26 14:40N 54°46' W 132°22'0 0.1 1019.4 11.6
2015-Sep-26 13:40N 54°45' W 132°22'0 0.1 1019.6 11.6
2015-Sep-26 12:40N 54°45' W 132°22'0 0.0 1019.4 11.6
2015-Sep-26 05:40N 54°45' W 132°22'0 0.0 1018.7 11.8
2015-Sep-26 00:40N 54°45' W 132°22'0 0.0 1017.1 12.0
2015-Sep-25 20:40N 54°46' W 132°22'0 0.0 1015.1 12.3
2015-Sep-25 17:40N 54°45' W 132°22'0 0.0 1013.7 11.6
2015-Sep-25 10:40N 54°46' W 132°22'0 0.0 1011.5 11.6
2015-Sep-25 06:40N 54°45' W 132°22'0 0.0 1009.5 11.7
2015-Sep-24 20:40N 54°46' W 132°22'0 0.0 1001.8 11.8
2015-Sep-24 17:40N 54°46' W 132°22'0 0.0 1001.8 11.7
2015-Sep-24 12:40N 54°46' W 132°22'0 0.0 1001.3 11.6
2015-Sep-23 05:40N 54°46' W 132°22'0 0.1 1006.8 11.9
2015-Sep-23 04:40N 54°45' W 132°22'0 0.0 1006.7 12.0
2015-Sep-23 00:40N 54°45' W 132°22'0 0.0 1006.9 12.1
2015-Sep-22 23:40N 54°45' W 132°22'0 0.0 1007.0 12.1
2015-Sep-22 15:40N 54°46' W 132°22'0 0.3 1003.7 11.8
2015-Sep-22 14:40N 54°45' W 132°21'0 0.0 1003.4 11.7
2015-Sep-22 05:40N 54°45' W 132°22'0 0.0 1006.0 12.0
2015-Sep-22 02:40N 54°45' W 132°22'0 0.0 1008.4 12.0
2015-Sep-21 21:40N 54°45' W 132°22'0 0.1 1013.0 12.1
2015-Sep-21 20:40N 54°45' W 132°22'0 0.0 1013.5 12.0
2015-Sep-21 17:40N 54°45' W 132°22'0 0.0 1014.0 12.0
2015-Sep-21 15:40N 54°45' W 132°22'0 0.0 1014.4 12.0
2015-Sep-21 12:40N 54°45' W 132°22'0 0.0 1014.4 12.1
2015-Sep-21 05:40N 54°45' W 132°22'0 0.0 1013.8 12.4
2015-Sep-20 22:40N 54°45' W 132°22'0 0.0 1012.1 12.5
2015-Sep-20 14:40N 54°46' W 132°22'0 0.0 1009.0 11.8
2015-Sep-20 11:40N 54°45' W 132°22'0 0.0 1009.4 11.8
2015-Sep-20 02:40N 54°45' W 132°22'0 0.0 1009.3 12.3
2015-Sep-19 19:40N 54°45' W 132°22'   1008.7 12.3
Track history (hours):
 
Tides and Currents Weather Stations Pressure Air Temp Water Temp Dewpoint Dewpoint Depression Visibility Wind Speed Wind Dir Waves Ship Positions

Drifting buoy 46928

Last reported at 2015-Sep-29 18:40 UTC. Time now 2016-Jul-29 07:48 UTC.
Position N 54°45' W 132°22'.
Warning: this ship's position is months out of date.

Barometer 1014.2 mb
Water temperature 11.4 ° C

Date/timePositionNaut miles runAvg speedWind from/ knotsBaromVisibWave heightAir tempDewpointWater temp
2015-Sep-29 18:40N 54°45' W 132°22'0 0.1 1014.2 11.4
2015-Sep-29 17:40N 54°46' W 132°22'0 0.0 1014.4 11.4
2015-Sep-29 11:40N 54°46' W 132°22'0 0.0 1013.6 11.4
2015-Sep-29 04:40N 54°45' W 132°22'0 0.1 1014.9 11.3
2015-Sep-29 00:40N 54°45' W 132°22'0 0.1 1015.2 11.3
2015-Sep-28 19:40N 54°46' W 132°22'0 0.1 1017.7 11.6
2015-Sep-28 17:40N 54°45' W 132°22'0 0.0 1018.8 11.2
2015-Sep-28 16:40N 54°45' W 132°22'0 0.2 1019.2 11.2
2015-Sep-28 15:40N 54°46' W 132°22'0 0.1 1019.7 11.2
2015-Sep-28 14:40N 54°46' W 132°22'0 0.0 1020.2 11.2
2015-Sep-28 12:40N 54°46' W 132°22'0 0.1 1020.5 11.5
2015-Sep-28 11:40N 54°45' W 132°22'0 0.0 1020.6 11.6
2015-Sep-28 06:40N 54°45' W 132°22'0 0.1 1021.6 11.6
2015-Sep-28 05:40N 54°46' W 132°22'0 0.0 1021.7 11.6
2015-Sep-28 02:40N 54°46' W 132°22'0 0.2 1022.1 11.5
2015-Sep-28 01:40N 54°45' W 132°22'0 0.0 1022.0 11.6
2015-Sep-27 03:40N 54°46' W 132°22'0 0.1 1018.4 11.6
2015-Sep-27 02:40N 54°45' W 132°22'0 0.0 1018.2 11.6
2015-Sep-27 00:40N 54°45' W 132°22'0 0.2 1018.0 11.6
2015-Sep-26 23:40N 54°46' W 132°22'0 0.1 1017.6 11.6
2015-Sep-26 20:40N 54°45' W 132°22'0 0.1 1018.7 11.6
2015-Sep-26 18:40N 54°45' W 132°22'0 0.1 1019.5 11.6
2015-Sep-26 17:40N 54°45' W 132°22'0 0.0 1019.7 11.6
2015-Sep-26 14:40N 54°46' W 132°22'0 0.1 1019.4 11.6
2015-Sep-26 13:40N 54°45' W 132°22'0 0.1 1019.6 11.6
2015-Sep-26 12:40N 54°45' W 132°22'0 0.0 1019.4 11.6
2015-Sep-26 05:40N 54°45' W 132°22'0 0.0 1018.7 11.8
2015-Sep-26 00:40N 54°45' W 132°22'0 0.0 1017.1 12.0
2015-Sep-25 20:40N 54°46' W 132°22'0 0.0 1015.1 12.3
2015-Sep-25 17:40N 54°45' W 132°22'0 0.0 1013.7 11.6
2015-Sep-25 10:40N 54°46' W 132°22'0 0.0 1011.5 11.6
2015-Sep-25 06:40N 54°45' W 132°22'0 0.0 1009.5 11.7
2015-Sep-24 20:40N 54°46' W 132°22'0 0.0 1001.8 11.8
2015-Sep-24 17:40N 54°46' W 132°22'0 0.0 1001.8 11.7
2015-Sep-24 12:40N 54°46' W 132°22'0 0.0 1001.3 11.6
2015-Sep-23 05:40N 54°46' W 132°22'0 0.1 1006.8 11.9
2015-Sep-23 04:40N 54°45' W 132°22'0 0.0 1006.7 12.0
2015-Sep-23 00:40N 54°45' W 132°22'0 0.0 1006.9 12.1
2015-Sep-22 23:40N 54°45' W 132°22'0 0.0 1007.0 12.1
2015-Sep-22 15:40N 54°46' W 132°22'0 0.3 1003.7 11.8
2015-Sep-22 14:40N 54°45' W 132°21'0 0.0 1003.4 11.7
2015-Sep-22 05:40N 54°45' W 132°22'0 0.0 1006.0 12.0
2015-Sep-22 02:40N 54°45' W 132°22'0 0.0 1008.4 12.0
2015-Sep-21 21:40N 54°45' W 132°22'0 0.1 1013.0 12.1
2015-Sep-21 20:40N 54°45' W 132°22'0 0.0 1013.5 12.0
2015-Sep-21 17:40N 54°45' W 132°22'0 0.0 1014.0 12.0
2015-Sep-21 15:40N 54°45' W 132°22'0 0.0 1014.4 12.0
2015-Sep-21 12:40N 54°45' W 132°22'0 0.0 1014.4 12.1
2015-Sep-21 05:40N 54°45' W 132°22'0 0.0 1013.8 12.4
2015-Sep-20 22:40N 54°45' W 132°22'0 0.0 1012.1 12.5
2015-Sep-20 14:40N 54°46' W 132°22'0 0.0 1009.0 11.8
2015-Sep-20 11:40N 54°45' W 132°22'0 0.0 1009.4 11.8
2015-Sep-20 02:40N 54°45' W 132°22'0 0.0 1009.3 12.3
2015-Sep-19 19:40N 54°45' W 132°22'   1008.7 12.3

Dump ship's entire track history